ADDS TAF Data INFO
IDs: Format: Raw Decoded Include METARs

Data at: 1415 UTC 19 Nov 2017

KPGV 191143Z 1912/2012 23011G22KT P6SM VCSH SCT006 BKN012 OVC040
  FM191300 31015G25KT P6SM BKN045
  FM192100 31007KT P6SM SKC AMD LTD TO CLD VIS AND WIND